Time;durP1;ratioP1;P1;durP2;ratioP2;P2;SDS_P1;SDS_P2;PMS_P1;PMS_P2;Temp;Humidity;BMP_temperature;BMP_pressure;BME280_temperature;BME280_humidity;BME280_pressure;Samples;Min_cycle;Max_cycle;Signal;HPM_P1;HPM_P2
2021/11/13 04:33:19;;;;;;;22.40;17.80;;;;;;;6.34;64.61;98776.28;7058751;22;20236;-81
2021/11/13 04:36:44;;;;;;;21.70;17.80;;;;;;;6.55;63.97;98742.44;6930127;28;20268;-81
2021/11/13 04:40:07;;;;;;;18.53;16.27;;;;;;;5.93;63.85;98714.19;6917953;28;20187;-81
2021/11/13 04:43:32;;;;;;;19.63;15.80;;;;;;;6.47;62.11;98742.53;6917896;28;20699;-81
2021/11/13 04:46:53;;;;;;;17.27;15.17;;;;;;;6.02;63.36;98761.28;6917355;28;20256;-81
2021/11/13 04:50:18;;;;;;;16.17;14.27;;;;;;;6.02;63.82;98750.56;6918544;28;20208;-81
2021/11/13 04:53:40;;;;;;;16.33;14.47;;;;;;;6.55;63.76;98747.00;6918011;28;20210;-81
2021/11/13 04:57:02;;;;;;;16.40;14.30;;;;;;;6.84;62.66;98739.81;6918062;28;20213;-80
2021/11/13 05:00:25;;;;;;;16.40;14.67;;;;;;;7.03;61.68;98750.03;6919113;28;20568;-79
2021/11/13 05:03:47;;;;;;;15.80;14.10;;;;;;;7.33;61.06;98749.00;6918169;28;20309;-80
2021/11/13 05:07:10;;;;;;;15.30;13.57;;;;;;;7.57;60.62;98755.91;6926472;28;20219;-80
2021/11/13 05:10:32;;;;;;;16.30;13.97;;;;;;;7.09;60.41;98746.59;6939203;28;20222;-80
2021/11/13 05:13:53;;;;;;;17.50;13.93;;;;;;;6.82;61.90;98738.34;6941886;28;20214;-80
2021/11/13 05:17:15;;;;;;;16.47;14.63;;;;;;;7.20;61.22;98751.47;6947035;28;20196;-80
2021/11/13 05:20:37;;;;;;;17.93;14.10;;;;;;;6.70;62.65;98754.03;6968983;28;20222;-80
2021/11/13 05:24:00;;;;;;;16.70;14.00;;;;;;;6.85;62.85;98762.09;6957481;28;20207;-80
2021/11/13 05:27:21;;;;;;;15.57;13.47;;;;;;;7.21;62.64;98769.25;6967086;28;20203;-80
2021/11/13 05:30:43;;;;;;;17.93;13.63;;;;;;;7.78;60.99;98750.59;6947680;28;20264;-80
2021/11/13 05:34:05;;;;;;;19.13;14.77;;;;;;;7.88;60.50;98773.44;6948256;28;20196;-80
2021/11/13 05:37:26;;;;;;;19.63;16.77;;;;;;;8.05;58.78;98757.91;6948018;28;20673;-80
2021/11/13 05:40:49;;;;;;;14.63;13.03;;;;;;;8.04;58.56;98759.78;6943731;28;20237;-80
2021/11/13 05:44:11;;;;;;;17.90;15.13;;;;;;;7.42;60.09;98768.50;6941815;28;20211;-81
2021/11/13 05:47:32;;;;;;;17.00;14.63;;;;;;;7.57;60.46;98769.31;6942276;28;20216;-81
2021/11/13 05:50:54;;;;;;;18.37;14.60;;;;;;;7.60;60.47;98763.59;6942498;28;20240;-81
2021/11/13 05:54:16;;;;;;;16.40;14.70;;;;;;;7.66;60.30;98762.84;6943157;28;20250;-81
2021/11/13 05:57:39;;;;;;;18.80;16.00;;;;;;;7.61;60.50;98771.44;6945148;28;20979;-81
2021/11/13 06:01:01;;;;;;;18.37;14.77;;;;;;;7.96;60.12;98770.63;6950146;28;20360;-81
2021/11/13 06:04:23;;;;;;;17.67;14.63;;;;;;;8.07;59.65;98766.63;6942162;28;20232;-81
2021/11/13 06:07:45;;;;;;;18.80;15.27;;;;;;;7.61;60.93;98739.22;6947895;28;20205;-81
2021/11/13 06:11:07;;;;;;;19.07;15.40;;;;;;;7.83;60.96;98750.88;6945968;28;20271;-81
2021/11/13 06:14:30;;;;;;;19.57;15.80;;;;;;;7.81;60.13;98750.19;6948602;28;20200;-81
2021/11/13 06:17:51;;;;;;;20.93;16.97;;;;;;;7.87;60.50;98761.03;6949669;28;20224;-81
2021/11/13 06:21:14;;;;;;;20.87;16.63;;;;;;;8.17;60.24;98759.06;6951211;28;20232;-81
2021/11/13 06:24:36;;;;;;;22.00;16.10;;;;;;;7.99;60.13;98746.09;6948831;28;20254;-82
2021/11/13 06:27:57;;;;;;;19.73;16.30;;;;;;;8.33;59.82;98751.66;6949174;28;20201;-80
2021/11/13 06:31:20;;;;;;;19.53;16.03;;;;;;;8.20;59.80;98750.69;6948886;28;20231;-80
2021/11/13 06:34:42;;;;;;;20.57;16.47;;;;;;;8.21;59.93;98733.53;6943817;28;20201;-80
2021/11/13 06:38:03;;;;;;;18.93;16.20;;;;;;;8.13;60.79;98747.06;6949482;28;20677;-79
2021/11/13 06:41:29;;;;;;;27.57;17.63;;;;;;;7.87;61.40;98714.56;6953943;28;20222;-79
2021/11/13 06:44:51;;;;;;;21.57;16.40;;;;;;;8.30;60.45;98703.66;6973681;28;20252;-80
2021/11/13 06:48:14;;;;;;;19.57;15.97;;;;;;;7.90;61.72;98741.84;6976683;28;20210;-80
2021/11/13 06:51:35;;;;;;;19.87;15.37;;;;;;;8.64;60.49;98730.63;6948081;28;20263;-79
2021/11/13 06:54:57;;;;;;;17.70;12.90;;;;;;;8.73;60.20;98720.56;6948519;28;20202;-80
2021/11/13 06:58:19;;;;;;;14.10;12.43;;;;;;;8.85;58.34;98694.81;6947106;28;20207;-82
2021/11/13 07:01:40;;;;;;;16.30;11.60;;;;;;;9.21;57.94;98723.97;6948669;28;20696;-81
2021/11/13 07:05:04;;;;;;;16.63;13.27;;;;;;;9.45;56.96;98738.81;6952102;28;20243;-81
2021/11/13 07:08:26;;;;;;;12.67;11.30;;;;;;;9.01;57.47;98724.06;6954167;28;20211;-82
2021/11/13 07:11:47;;;;;;;15.23;10.10;;;;;;;9.11;56.73;98690.41;6950010;28;20233;-81
2021/11/13 07:15:10;;;;;;;13.97;11.30;;;;;;;9.36;56.26;98726.53;6949537;28;20204;-81
2021/11/13 07:18:32;;;;;;;12.17;10.77;;;;;;;9.55;55.57;98734.72;6950084;28;20199;-80
2021/11/13 07:21:55;;;;;;;13.83;10.43;;;;;;;9.52;55.35;98724.34;6950246;28;20245;-81
2021/11/13 07:25:17;;;;;;;12.47;10.83;;;;;;;9.79;55.14;98731.50;6951523;28;20229;-82
2021/11/13 07:28:39;;;;;;;12.60;10.10;;;;;;;9.77;55.00;98728.19;6950213;28;20924;-82
2021/11/13 07:32:01;;;;;;;15.13;11.10;;;;;;;9.71;54.46;98723.63;6952903;28;20248;-82
2021/11/13 07:35:22;;;;;;;12.17;10.43;;;;;;;9.48;54.72;98722.25;6949599;28;20194;-81
2021/11/13 07:38:45;;;;;;;11.23;9.87;;;;;;;9.43;55.42;98727.41;6948177;28;20268;-81
2021/11/13 07:42:07;;;;;;;11.97;10.53;;;;;;;9.47;55.05;98731.38;6947693;28;20217;-82
2021/11/13 07:45:29;;;;;;;11.70;10.07;;;;;;;9.27;54.87;98685.53;6946751;28;20229;-81
2021/11/13 07:48:51;;;;;;;11.93;10.07;;;;;;;9.58;54.63;98720.84;6948052;28;20202;-82
2021/11/13 07:52:13;;;;;;;11.40;9.27;;;;;;;9.80;53.91;98729.66;6947845;28;20581;-82
2021/11/13 07:55:36;;;;;;;11.80;9.00;;;;;;;9.76;53.71;98688.84;6947787;28;20218;-81
2021/11/13 07:58:58;;;;;;;12.00;9.53;;;;;;;10.12;52.62;98728.94;6947402;28;20202;-81
2021/11/13 08:02:20;;;;;;;10.50;9.00;;;;;;;9.89;53.16;98720.34;6948647;28;20238;-81
2021/11/13 08:05:41;;;;;;;9.87;8.87;;;;;;;9.95;53.37;98719.53;6947372;28;20255;-81
2021/11/13 08:09:04;;;;;;;10.23;8.70;;;;;;;10.20;52.27;98710.72;6948920;28;20204;-82
2021/11/13 08:12:27;;;;;;;10.03;8.13;;;;;;;10.41;51.95;98707.84;6948450;28;20665;-82
2021/11/13 08:15:49;;;;;;;11.13;8.13;;;;;;;10.50;51.26;98722.78;6947078;28;20571;-82
2021/11/13 08:19:11;;;;;;;9.67;7.90;;;;;;;10.40;51.25;98726.91;6948219;28;20203;-81
2021/11/13 08:22:34;;;;;;;9.60;7.67;;;;;;;10.36;51.10;98686.06;6948171;28;20226;-82
2021/11/13 08:25:56;;;;;;;11.10;8.57;;;;;;;10.87;51.13;98732.91;6947025;28;20258;-81
2021/11/13 08:29:19;;;;;;;9.13;7.77;;;;;;;10.99;50.63;98711.56;6946904;28;20210;-82
2021/11/13 08:32:41;;;;;;;10.60;9.50;;;;;;;11.43;50.56;98717.03;6936075;28;20241;-81
2021/11/13 08:36:03;;;;;;;12.17;10.50;;;;;;;11.03;50.68;98697.41;6919931;28;20203;-81
2021/11/13 08:39:25;;;;;;;12.40;9.93;;;;;;;11.14;51.82;98712.13;6947058;28;20226;-81
2021/11/13 08:42:47;;;;;;;15.90;9.67;;;;;;;10.91;52.10;98717.16;6946897;28;20229;-82
2021/11/13 08:46:10;;;;;;;11.57;9.87;;;;;;;11.15;51.64;98728.13;6947074;28;20242;-81
2021/11/13 08:49:31;;;;;;;10.87;9.77;;;;;;;11.65;51.08;98726.56;6936892;28;20232;-81
2021/11/13 08:52:56;;;;;;;12.67;10.00;;;;;;;11.54;50.74;98729.88;6919632;28;20281;-81
2021/11/13 08:56:17;;;;;;;11.97;9.63;;;;;;;11.06;53.42;98736.66;6919190;28;20207;-81
2021/11/13 08:59:39;;;;;;;10.67;9.43;;;;;;;11.18;53.12;98745.75;6915594;28;20213;-81
2021/11/13 09:03:06;;;;;;;12.23;10.03;;;;;;;11.25;52.89;98733.91;6917264;28;20234;-80
2021/11/13 09:06:30;;;;;;;10.40;9.13;;;;;;;11.86;51.31;98707.34;6915839;28;20221;-80
2021/11/13 09:09:52;;;;;;;13.37;10.47;;;;;;;12.08;51.62;98722.19;6917124;28;20214;-80
2021/11/13 09:13:14;;;;;;;20.20;11.67;;;;;;;12.05;51.55;98749.66;6916921;28;20232;-81
2021/11/13 09:16:36;;;;;;;16.33;10.70;;;;;;;12.48;50.87;98743.38;6926726;28;20592;-81
2021/11/13 09:19:59;;;;;;;16.70;11.53;;;;;;;12.79;49.06;98728.97;6921352;28;20204;-78
2021/11/13 09:23:21;;;;;;;14.27;11.03;;;;;;;11.95;49.86;98730.38;6941944;28;20218;-79
2021/11/13 09:26:42;;;;;;;11.67;10.33;;;;;;;12.29;50.43;98725.41;6940481;28;20207;-86
2021/11/13 09:30:06;;;;;;;13.70;10.33;;;;;;;12.61;50.21;98712.66;6918452;28;20208;-81
2021/11/13 09:33:29;;;;;;;13.07;10.17;;;;;;;12.60;51.18;98711.03;6915898;28;20241;-81
2021/11/13 09:36:52;;;;;;;12.97;11.17;;;;;;;12.80;52.87;98692.75;6938456;28;20237;-82
2021/11/13 09:40:16;;;;;;;15.10;9.93;;;;;;;12.95;51.49;98710.34;6927928;28;20208;-81
2021/11/13 09:43:41;;;;;;;11.53;9.77;;;;;;;13.06;51.48;98706.91;6933652;28;20244;-81
2021/11/13 09:47:05;;;;;;;11.53;9.90;;;;;;;13.19;50.72;98701.34;6946234;28;20226;-86
2021/11/13 09:50:30;;;;;;;14.53;10.37;;;;;;;13.19;50.76;98697.81;6921783;28;20208;-81
2021/11/13 09:53:53;;;;;;;15.80;11.50;;;;;;;13.21;51.32;98703.84;6950147;28;20199;-84
2021/11/13 09:57:15;;;;;;;15.77;12.07;;;;;;;13.16;52.47;98699.09;6949223;28;20214;-85
2021/11/13 10:00:39;;;;;;;14.47;11.63;;;;;;;13.19;53.15;98693.22;6948293;28;20223;-83
2021/11/13 10:04:01;;;;;;;18.57;12.27;;;;;;;13.46;53.28;98693.78;6948232;28;20226;-81
2021/11/13 10:07:23;;;;;;;15.67;9.83;;;;;;;14.27;52.20;98687.69;6948726;28;20620;-83
2021/11/13 10:10:47;;;;;;;10.17;9.20;;;;;;;14.55;49.89;98676.19;6949652;28;20229;-84
2021/11/13 10:14:10;;;;;;;12.97;9.23;;;;;;;14.57;49.28;98661.34;6951595;28;20207;-84
2021/11/13 10:17:32;;;;;;;10.13;9.10;;;;;;;14.95;48.48;98669.88;6956809;28;20294;-80
2021/11/13 10:21:04;;;;;;;13.17;9.73;;;;;;;14.91;48.10;98674.13;6949718;28;20234;-82
2021/11/13 10:24:28;;;;;;;9.70;8.70;;;;;;;14.76;49.10;98679.19;6945978;28;20191;-85
2021/11/13 10:28:10;;;;;;;11.93;9.73;;;;;;;15.15;47.02;98673.06;6947952;28;20227;-81
2021/11/13 10:31:33;;;;;;;17.97;14.00;;;;;;;15.28;47.74;98680.94;6946262;28;20235;-82
2021/11/13 10:34:55;;;;;;;14.27;9.63;;;;;;;15.17;47.13;98651.91;6946306;28;20595;-80
2021/11/13 10:38:19;;;;;;;13.07;9.43;;;;;;;15.20;47.32;98675.88;6946723;28;20212;-82
2021/11/13 10:41:46;;;;;;;11.83;10.47;;;;;;;14.72;49.44;98663.59;6946679;28;20225;-80
2021/11/13 10:45:09;;;;;;;13.57;10.60;;;;;;;14.64;49.74;98659.34;6946376;28;20202;-84
2021/11/13 10:48:31;;;;;;;12.93;11.40;;;;;;;14.51;50.60;98658.75;6949964;28;20235;-82
2021/11/13 10:51:54;;;;;;;11.50;9.70;;;;;;;14.42;50.14;98660.97;6949492;28;20231;-83
2021/11/13 10:55:17;;;;;;;14.23;10.47;;;;;;;14.43;50.42;98656.38;6949194;28;20215;-83
2021/11/13 10:58:42;;;;;;;15.30;12.80;;;;;;;14.32;52.52;98663.44;6946369;28;20226;-81
2021/11/13 11:02:08;;;;;;;16.60;12.60;;;;;;;13.99;53.88;98627.81;6922269;28;20229;-83
2021/11/13 11:05:44;;;;;;;17.60;14.47;;;;;;;14.45;53.57;98649.66;6924819;28;20213;-81
2021/11/13 11:09:27;;;;;;;16.87;13.53;;;;;;;14.20;53.36;98623.78;6941210;28;20203;-84
2021/11/13 11:12:49;;;;;;;17.43;13.63;;;;;;;14.17;53.98;98637.78;6931046;28;20254;-82
2021/11/13 11:16:28;;;;;;;23.37;12.97;;;;;;;13.37;56.21;98628.25;6956959;28;20882;-82
2021/11/13 11:19:53;;;;;;;18.67;14.77;;;;;;;14.09;54.57;98648.97;6923402;28;20656;-81
2021/11/13 11:23:16;;;;;;;15.73;13.17;;;;;;;13.98;55.15;98628.88;6952827;28;20228;-82
2021/11/13 11:26:38;;;;;;;14.83;13.13;;;;;;;13.98;55.89;98612.59;6949602;28;20737;-84
2021/11/13 11:30:04;;;;;;;16.50;13.60;;;;;;;14.11;55.98;98627.84;6949047;28;20207;-83
2021/11/13 11:33:38;;;;;;;16.70;12.37;;;;;;;14.06;55.50;98641.28;6947188;28;20254;-83
2021/11/13 11:37:07;;;;;;;15.67;12.50;;;;;;;14.19;54.79;98632.97;6933980;28;20298;-83
2021/11/13 11:40:32;;;;;;;15.67;13.73;;;;;;;14.32;54.94;98630.88;6919439;28;20191;-83
2021/11/13 11:43:54;;;;;;;16.83;14.57;;;;;;;14.23;55.23;98621.41;6919182;28;20624;-81
2021/11/13 11:47:17;;;;;;;20.17;14.70;;;;;;;13.91;54.99;98592.06;6919767;28;20239;-82
2021/11/13 11:50:39;;;;;;;15.07;11.97;;;;;;;14.04;54.81;98622.53;6922476;28;20230;-82
2021/11/13 11:54:05;;;;;;;19.07;14.30;;;;;;;14.39;54.92;98625.38;6943603;28;20218;-82
2021/11/13 11:57:29;;;;;;;16.93;13.90;;;;;;;14.42;55.01;98622.16;6931847;28;20184;-81
2021/11/13 12:00:53;;;;;;;16.17;13.53;;;;;;;14.47;54.67;98622.28;6931849;28;20215;-84
2021/11/13 12:04:18;;;;;;;16.00;12.70;;;;;;;14.60;53.99;98624.78;6932344;28;20211;-86
2021/11/13 12:07:40;;;;;;;12.47;10.57;;;;;;;14.60;53.70;98617.47;6935210;28;20218;-81
2021/11/13 13:51:24;;;;;;;12.43;8.83;;;;;;;14.55;56.38;98565.81;6955921;28;1466294;-61
2021/11/13 13:54:49;;;;;;;12.80;10.53;;;;;;;14.42;57.13;98567.91;7013947;28;20235;-61
2021/11/13 13:58:14;;;;;;;10.97;8.70;;;;;;;14.52;56.99;98573.59;7027527;28;20235;-61
2021/11/13 14:01:41;;;;;;;12.80;11.47;;;;;;;14.43;57.49;98573.13;7012386;28;20266;-61
2021/11/13 14:05:06;;;;;;;14.50;12.23;;;;;;;14.43;57.58;98570.41;7023747;28;20221;-62
2021/11/13 14:08:33;;;;;;;10.57;9.47;;;;;;;14.38;57.39;98564.84;6978850;28;20219;-61
2021/11/13 14:11:55;;;;;;;10.30;8.60;;;;;;;14.09;57.62;98567.63;7005299;28;20229;-65
2021/11/13 14:15:20;;;;;;;9.97;8.47;;;;;;;14.21;57.50;98573.94;7016676;28;20208;-61
2021/11/13 14:18:46;;;;;;;11.87;8.43;;;;;;;14.29;57.15;98562.72;6979373;28;20212;-61
2021/11/13 14:22:11;;;;;;;9.13;8.23;;;;;;;14.19;57.33;98576.88;7010478;28;20206;-62
2021/11/13 14:25:46;;;;;;;10.17;9.17;;;;;;;13.65;59.50;98577.03;6999281;28;20552;-61
2021/11/13 14:29:08;;;;;;;12.27;10.03;;;;;;;13.23;59.82;98540.09;6995842;28;20197;-61
2021/11/13 14:32:30;;;;;;;13.60;10.60;;;;;;;13.62;60.33;98574.78;6999478;28;20230;-60
2021/11/13 14:35:53;;;;;;;22.97;15.97;;;;;;;13.89;59.75;98572.50;6998752;28;20627;-61
2021/11/13 14:39:16;;;;;;;17.13;11.27;;;;;;;13.15;62.33;98574.81;6999431;28;20209;-61
2021/11/13 14:42:41;;;;;;;13.03;11.00;;;;;;;13.22;62.73;98579.06;6999418;28;20250;-61
2021/11/13 14:46:14;;;;;;;12.10;10.50;;;;;;;13.00;62.87;98567.06;6998968;28;20238;-61
2021/11/13 14:49:38;;;;;;;10.83;9.73;;;;;;;12.77;63.91;98583.13;6999436;28;20288;-61
2021/11/13 14:53:02;;;;;;;12.57;10.17;;;;;;;12.53;64.90;98577.75;6996677;28;20229;-61
2021/11/13 14:56:27;;;;;;;11.33;10.00;;;;;;;12.99;63.84;98587.03;6996705;28;20205;-61
2021/11/13 14:59:53;;;;;;;12.73;11.23;;;;;;;12.98;63.41;98577.28;6999047;28;20201;-62
2021/11/13 15:03:17;;;;;;;13.80;11.97;;;;;;;13.24;62.81;98578.84;6998329;28;20204;-62
2021/11/13 15:06:39;;;;;;;14.30;11.40;;;;;;;12.84;63.90;98566.78;6998315;28;20284;-62
2021/11/13 15:10:02;;;;;;;17.40;11.20;;;;;;;12.73;63.93;98587.31;6998352;28;20209;-61
2021/11/13 15:13:25;;;;;;;13.67;11.27;;;;;;;12.40;65.71;98594.91;6998603;28;20225;-61
2021/11/13 15:16:48;;;;;;;12.03;10.73;;;;;;;12.22;66.43;98589.44;6997840;28;20202;-61
2021/11/13 15:20:13;;;;;;;12.67;10.87;;;;;;;12.58;64.82;98597.63;6998971;28;20674;-61
2021/11/13 15:23:36;;;;;;;16.27;12.50;;;;;;;12.91;64.53;98586.47;6998538;28;20197;-62
2021/11/13 15:27:00;;;;;;;12.87;10.77;;;;;;;13.05;64.10;98598.88;6998391;28;20220;-62
2021/11/13 15:30:25;;;;;;;13.30;11.17;;;;;;;13.44;62.83;98582.94;6998120;28;20201;-62
2021/11/13 15:33:48;;;;;;;12.87;11.53;;;;;;;13.02;63.40;98602.00;6958453;28;20225;-61
2021/11/13 15:37:12;;;;;;;12.77;11.00;;;;;;;12.80;63.90;98595.38;6978674;28;20208;-62
2021/11/13 15:40:34;;;;;;;14.97;12.37;;;;;;;12.95;63.88;98596.69;7018585;28;20635;-63
2021/11/13 15:43:58;;;;;;;13.77;11.17;;;;;;;12.84;64.44;98578.44;7022650;28;20220;-63
2021/11/13 15:47:23;;;;;;;13.30;10.87;;;;;;;13.37;62.72;98592.22;6997335;28;20197;-62
2021/11/13 15:50:59;;;;;;;13.07;11.27;;;;;;;12.30;64.55;98536.97;6992366;28;20205;-63
2021/11/13 15:54:21;;;;;;;13.97;11.80;;;;;;;12.61;64.78;98586.38;6996788;28;20225;-62
2021/11/13 15:57:43;;;;;;;12.53;11.23;;;;;;;12.51;65.67;98582.56;7000975;28;20233;-62
2021/11/13 16:01:06;;;;;;;12.57;11.23;;;;;;;12.51;65.40;98590.66;6981561;28;20225;-62
2021/11/13 16:04:27;;;;;;;14.57;11.37;;;;;;;12.44;65.74;98596.13;6991985;28;20217;-62
2021/11/13 16:07:51;;;;;;;12.93;11.20;;;;;;;13.08;64.37;98561.34;6994958;28;20212;-63
2021/11/13 16:11:13;;;;;;;11.80;10.53;;;;;;;13.21;63.06;98577.41;7014638;28;20232;-63
2021/11/13 16:14:35;;;;;;;14.70;10.77;;;;;;;13.29;64.04;98590.63;7015225;28;20231;-62
2021/11/13 16:17:57;;;;;;;14.87;11.50;;;;;;;13.85;62.54;98603.84;6993164;28;20208;-63
2021/11/13 16:21:23;;;;;;;12.77;10.70;;;;;;;12.72;62.84;98476.63;7013976;28;20253;-62
2021/11/13 16:24:47;;;;;;;11.97;10.57;;;;;;;14.16;60.87;98587.31;7009402;28;20210;-62
2021/11/13 16:28:09;;;;;;;15.90;13.17;;;;;;;14.21;60.39;98606.47;7000769;28;20253;-62
2021/11/13 16:31:31;;;;;;;13.03;11.73;;;;;;;14.04;60.74;98597.31;6984990;28;20530;-62
2021/11/13 16:34:53;;;;;;;16.50;12.37;;;;;;;14.22;60.01;98605.41;6977873;28;20234;-62
2021/11/13 16:38:16;;;;;;;17.20;14.70;;;;;;;14.29;59.94;98616.97;7007472;28;20258;-62
2021/11/13 16:41:40;;;;;;;19.67;16.83;;;;;;;13.81;60.00;98549.28;7009330;28;20651;-62
2021/11/13 16:45:01;;;;;;;27.67;19.50;;;;;;;14.02;60.86;98619.22;7006678;28;20201;-62
2021/11/13 16:48:26;;;;;;;21.97;18.87;;;;;;;14.00;60.97;98624.06;6996573;28;20198;-62
2021/11/13 16:51:48;;;;;;;22.63;17.30;;;;;;;14.06;60.50;98615.00;6968832;28;20214;-62
2021/11/13 16:55:10;;;;;;;19.27;16.17;;;;;;;13.95;60.42;98588.69;6997252;28;20224;-62
2021/11/13 16:58:36;;;;;;;18.43;15.63;;;;;;;13.88;61.29;98606.09;6997309;28;20232;-62
2021/11/13 17:01:58;;;;;;;21.13;17.33;;;;;;;13.84;61.51;98624.69;7000934;28;20201;-62
2021/11/13 17:05:21;;;;;;;27.23;21.23;;;;;;;13.72;62.08;98633.84;7000857;28;20586;-61
2021/11/13 17:08:43;;;;;;;26.33;22.53;;;;;;;13.83;61.95;98633.06;6981847;28;20679;-62
2021/11/13 17:12:06;;;;;;;30.13;25.20;;;;;;;13.90;61.81;98637.34;7001162;28;20201;-62
2021/11/13 17:15:30;;;;;;;27.13;22.97;;;;;;;13.86;61.68;98644.25;7001779;28;20229;-62
2021/11/13 17:18:51;;;;;;;26.40;22.67;;;;;;;13.55;62.54;98630.09;7016043;28;20216;-62
2021/11/13 17:22:13;;;;;;;28.57;23.87;;;;;;;13.92;61.84;98626.28;7003450;28;20566;-63
2021/11/13 17:25:36;;;;;;;37.33;31.27;;;;;;;13.51;61.72;98594.50;7001760;28;20232;-65
2021/11/13 17:28:58;;;;;;;32.80;25.57;;;;;;;13.99;61.70;98652.19;7001516;28;20591;-64
2021/11/13 17:32:21;;;;;;;35.23;27.83;;;;;;;13.82;62.02;98653.09;7001762;28;20542;-67
2021/11/13 17:35:44;;;;;;;32.93;26.97;;;;;;;13.70;62.01;98635.94;7001055;28;20236;-63
2021/11/13 17:39:07;;;;;;;28.13;22.80;;;;;;;13.79;62.13;98623.72;6999229;28;20210;-67
2021/11/13 17:42:29;;;;;;;29.13;24.03;;;;;;;13.90;62.02;98648.19;6973493;28;20213;-62
2021/11/13 17:45:51;;;;;;;25.93;22.50;;;;;;;13.78;62.03;98636.47;6996363;28;20206;-62
2021/11/13 17:49:14;;;;;;;36.60;27.13;;;;;;;13.80;62.29;98647.09;7001053;28;20201;-62
2021/11/13 17:52:36;;;;;;;27.67;21.37;;;;;;;13.59;62.51;98648.41;7000599;28;20218;-62
2021/11/13 17:55:58;;;;;;;24.53;17.13;;;;;;;14.12;61.57;98657.47;7000821;28;20208;-62
2021/11/13 17:59:21;;;;;;;24.73;20.43;;;;;;;13.71;62.36;98656.56;7000463;28;20236;-62
2021/11/13 18:02:44;;;;;;;23.10;19.57;;;;;;;13.59;62.43;98615.06;6996067;28;20675;-62
2021/11/13 18:06:09;;;;;;;28.63;22.40;;;;;;;13.61;62.77;98650.84;6954289;28;20198;-62
2021/11/13 18:09:33;;;;;;;28.07;20.87;;;;;;;13.78;62.65;98652.72;6989271;28;20636;-62
2021/11/13 18:12:55;;;;;;;20.83;18.00;;;;;;;13.83;62.25;98644.72;6997241;28;20212;-63
2021/11/13 18:16:21;;;;;;;21.83;18.47;;;;;;;13.87;62.24;98653.22;6980560;28;20198;-63
2021/11/13 18:24:01;;;;;;;27.27;19.70;;;;;;;13.89;61.91;98653.81;7000121;28;20552;-63
2021/11/13 18:27:23;;;;;;;30.00;21.20;;;;;;;13.39;63.12;98664.03;7000332;28;20220;-63
2021/11/13 18:30:46;;;;;;;29.47;22.73;;;;;;;13.56;63.17;98653.41;7000051;28;20210;-62
2021/11/13 18:34:08;;;;;;;29.27;21.07;;;;;;;13.65;62.88;98657.47;6999649;28;20221;-64
2021/11/13 18:37:34;;;;;;;26.80;20.87;;;;;;;13.87;62.28;98655.94;6993979;28;20221;-64
2021/11/13 18:40:58;;;;;;;22.97;18.67;;;;;;;13.81;61.83;98637.88;6998983;28;20288;-63
2021/11/13 18:44:21;;;;;;;21.07;17.70;;;;;;;13.88;62.12;98658.44;6999511;28;20204;-63
2021/11/13 18:47:43;;;;;;;23.90;18.73;;;;;;;13.82;62.10;98651.22;6999198;28;20209;-63
2021/11/13 18:51:08;;;;;;;25.03;19.07;;;;;;;13.34;63.36;98647.66;6999717;28;20694;-65
2021/11/13 18:54:29;;;;;;;23.37;18.63;;;;;;;13.03;63.01;98552.22;6974372;28;20237;-65
2021/11/13 18:57:53;;;;;;;23.77;18.20;;;;;;;13.65;62.75;98644.78;6991343;28;20674;-62
2021/11/13 19:01:18;;;;;;;23.77;18.90;;;;;;;13.85;62.35;98653.44;6999213;28;20243;-70
2021/11/13 19:04:41;;;;;;;23.93;19.47;;;;;;;13.85;62.29;98660.75;6998995;28;20245;-62
2021/11/13 19:08:03;;;;;;;23.83;20.03;;;;;;;13.68;62.09;98638.06;6999042;28;20311;-62
2021/11/13 19:11:26;;;;;;;26.23;20.33;;;;;;;13.73;62.41;98655.28;6999071;28;20202;-62
2021/11/13 19:14:49;;;;;;;28.53;20.57;;;;;;;13.64;62.54;98653.13;6998535;28;20221;-62
2021/11/13 19:18:11;;;;;;;23.60;19.13;;;;;;;13.72;62.64;98661.75;6998860;28;20205;-62
2021/11/13 19:21:32;;;;;;;25.17;20.40;;;;;;;13.26;63.51;98644.41;6985821;28;20213;-62
2021/11/13 19:24:54;;;;;;;25.73;19.60;;;;;;;13.70;62.91;98671.19;6995238;28;20202;-65
2021/11/13 19:28:16;;;;;;;27.43;20.20;;;;;;;13.69;62.86;98677.66;6994322;28;20224;-62
2021/11/13 19:31:39;;;;;;;25.53;19.73;;;;;;;13.62;62.45;98641.69;6969804;28;20207;-62
2021/11/13 19:35:01;;;;;;;23.60;19.67;;;;;;;13.50;62.57;98655.16;6976978;28;20236;-63
2021/11/13 19:38:25;;;;;;;27.60;21.83;;;;;;;13.29;63.12;98668.34;6998245;28;20209;-62
2021/11/13 19:41:47;;;;;;;26.93;20.40;;;;;;;13.20;64.09;98656.13;6998050;28;20793;-62
2021/11/13 19:45:09;;;;;;;25.73;21.27;;;;;;;13.49;63.16;98650.81;6997763;28;20280;-62
2021/11/13 19:48:32;;;;;;;24.27;20.33;;;;;;;13.66;62.59;98653.72;6997743;28;20198;-62
2021/11/13 19:51:55;;;;;;;25.40;19.53;;;;;;;13.52;63.10;98646.81;6998094;28;20221;-62
2021/11/13 19:55:17;;;;;;;24.00;19.47;;;;;;;13.61;62.20;98651.69;6980102;28;20675;-62
2021/11/13 19:58:38;;;;;;;28.10;21.23;;;;;;;13.52;61.95;98647.63;6997435;28;20232;-62
2021/11/13 20:02:00;;;;;;;25.37;20.97;;;;;;;13.16;62.92;98642.22;6962702;28;20206;-62
2021/11/13 20:05:23;;;;;;;27.73;21.07;;;;;;;13.23;63.52;98651.09;6973073;28;20209;-62
2021/11/13 20:08:45;;;;;;;24.77;20.60;;;;;;;13.07;64.18;98656.28;6976360;28;20212;-62
2021/11/13 20:12:09;;;;;;;25.33;20.87;;;;;;;13.48;63.17;98645.59;6997806;28;20213;-62
2021/11/13 20:15:31;;;;;;;28.17;21.87;;;;;;;13.40;62.88;98654.06;6979356;28;20221;-62
2021/11/13 20:18:53;;;;;;;30.57;23.47;;;;;;;13.33;63.01;98666.84;6998067;28;20224;-62
2021/11/13 20:22:16;;;;;;;28.17;21.83;;;;;;;13.35;63.43;98662.88;6997945;28;20213;-62
2021/11/13 20:25:38;;;;;;;27.67;21.97;;;;;;;13.29;63.02;98668.34;6997381;28;20213;-62
2021/11/13 20:28:59;;;;;;;31.10;22.97;;;;;;;13.20;63.23;98656.13;6997575;28;20228;-62
2021/11/13 20:32:21;;;;;;;29.23;23.27;;;;;;;13.25;62.66;98665.25;6984544;28;20202;-63
2021/11/13 20:35:44;;;;;;;30.53;22.87;;;;;;;13.38;62.83;98669.69;6972776;28;20240;-62
2021/11/13 20:39:08;;;;;;;29.80;22.83;;;;;;;13.20;62.58;98662.41;6977054;28;20856;-62
2021/11/13 20:42:33;;;;;;;33.37;25.20;;;;;;;13.05;63.38;98680.88;6989407;28;20717;-62
2021/11/13 20:45:57;;;;;;;32.27;25.50;;;;;;;12.94;63.38;98675.34;7002551;28;20202;-62
2021/11/13 20:49:18;;;;;;;30.93;23.87;;;;;;;13.08;62.92;98680.44;7002948;28;20575;-62
2021/11/13 20:52:41;;;;;;;34.83;25.40;;;;;;;12.68;64.00;98681.00;7002787;28;20221;-63
2021/11/13 20:56:05;;;;;;;36.43;27.90;;;;;;;12.66;64.56;98661.44;6984561;28;20221;-62
2021/11/13 20:59:27;;;;;;;38.73;29.07;;;;;;;12.66;65.14;98677.69;7002327;28;20558;-62
2021/11/13 21:02:49;;;;;;;37.30;29.27;;;;;;;13.05;63.78;98667.34;7002649;28;20220;-62
2021/11/13 21:06:11;;;;;;;38.30;28.53;;;;;;;12.90;64.02;98674.97;7002221;28;20210;-62
2021/11/13 21:09:33;;;;;;;36.17;28.33;;;;;;;13.14;63.66;98684.13;7001756;28;20209;-62
2021/11/13 21:12:56;;;;;;;35.17;28.30;;;;;;;13.23;63.20;98669.25;7002254;28;20212;-62
2021/11/13 21:16:18;;;;;;;37.67;28.83;;;;;;;13.21;62.56;98680.28;7001929;28;20225;-62
2021/11/13 21:19:40;;;;;;;40.87;29.77;;;;;;;13.06;63.01;98660.06;7002091;28;20655;-62
2021/11/13 21:23:02;;;;;;;34.57;29.23;;;;;;;13.12;62.75;98678.94;7001934;28;20201;-62
2021/11/13 21:26:23;;;;;;;35.17;26.57;;;;;;;13.01;63.17;98670.72;7001464;28;20560;-62
2021/11/13 21:29:46;;;;;;;35.63;26.80;;;;;;;12.94;62.70;98669.94;6984163;28;20201;-62
2021/11/13 21:33:09;;;;;;;36.10;27.13;;;;;;;12.84;63.47;98670.44;7001550;28;20220;-62
2021/11/13 21:36:31;;;;;;;37.97;26.23;;;;;;;12.86;62.94;98649.38;7000563;28;20225;-62
2021/11/13 21:39:53;;;;;;;33.47;25.10;;;;;;;12.64;63.50;98663.56;7001182;28;20215;-62
2021/11/13 21:43:15;;;;;;;34.90;25.40;;;;;;;12.91;62.88;98670.34;7001430;28;20201;-62
2021/11/13 21:46:38;;;;;;;30.23;25.00;;;;;;;12.94;63.00;98678.03;7000573;28;20208;-62
2021/11/13 21:50:00;;;;;;;29.37;23.33;;;;;;;12.97;62.86;98672.22;7001520;28;20663;-62
2021/11/13 21:53:22;;;;;;;33.47;25.00;;;;;;;12.90;62.51;98674.13;7000959;28;20216;-62